Time;durP1;ratioP1;P1;durP2;ratioP2;P2;SDS_P1;SDS_P2;PMS_P1;PMS_P2;Temp;Humidity;BMP_temperature;BMP_pressure;BME280_temperature;BME280_humidity;BME280_pressure;Samples;Min_cycle;Max_cycle;Signal;HPM_P1;HPM_P2
2022/06/13 00:02:04;;;;;;;3.05;0.95;;;25.70;99.90;;;;;;4993584;28;20109;-50
2022/06/13 00:04:30;;;;;;;5.43;1.00;;;25.80;99.90;;;;;;4993756;28;20110;-51
2022/06/13 00:06:55;;;;;;;5.18;1.35;;;25.80;99.90;;;;;;4993733;28;20544;-51
2022/06/13 00:09:21;;;;;;;2.83;0.90;;;25.80;99.90;;;;;;4994055;28;20061;-51
2022/06/13 00:11:47;;;;;;;5.70;1.10;;;25.80;99.90;;;;;;4993626;28;20367;-51
2022/06/13 00:14:13;;;;;;;4.95;1.48;;;25.80;99.90;;;;;;4993509;28;20390;-51
2022/06/13 00:16:39;;;;;;;5.47;1.10;;;25.80;99.90;;;;;;4993511;28;20078;-51
2022/06/13 00:19:05;;;;;;;2.97;0.82;;;25.80;99.90;;;;;;4993372;28;20022;-52
2022/06/13 00:21:33;;;;;;;5.70;0.82;;;25.80;99.90;;;;;;4992234;28;20022;-51
2022/06/13 00:24:01;;;;;;;5.22;0.70;;;25.80;99.90;;;;;;4993204;28;20022;-51
2022/06/13 00:26:29;;;;;;;4.90;0.90;;;25.80;99.90;;;;;;4993242;28;20033;-51
2022/06/13 00:28:56;;;;;;;4.72;0.90;;;25.80;99.90;;;;;;4992471;28;20018;-52
2022/06/13 00:31:22;;;;;;;2.53;1.00;;;25.70;99.90;;;;;;4993434;28;20081;-52
2022/06/13 00:33:48;;;;;;;3.00;0.88;;;25.80;99.90;;;;;;4993045;28;20038;-53
2022/06/13 00:36:15;;;;;;;8.65;1.20;;;25.80;99.90;;;;;;4992917;28;20048;-52
2022/06/13 00:38:41;;;;;;;5.28;1.00;;;25.80;99.90;;;;;;4991783;28;20386;-51
2022/06/13 00:41:12;;;;;;;4.20;0.95;;;25.80;99.90;;;;;;4992991;28;20502;-52
2022/06/13 00:43:44;;;;;;;6.50;0.90;;;25.80;99.90;;;;;;4992867;28;20506;-51
2022/06/13 00:46:27;;;;;;;6.35;1.35;;;25.80;99.90;;;;;;4992981;28;20038;-52
2022/06/13 00:49:00;;;;;;;3.13;0.80;;;25.80;99.90;;;;;;4995440;28;20030;-52
2022/06/13 00:51:27;;;;;;;5.40;0.88;;;25.90;99.90;;;;;;4993061;28;20019;-51
2022/06/13 00:53:53;;;;;;;7.53;1.03;;;25.90;99.90;;;;;;4979167;28;20022;-51
2022/06/13 00:56:23;;;;;;;5.30;1.05;;;26.00;99.90;;;;;;4992867;28;20067;-51
2022/06/13 00:58:55;;;;;;;3.72;1.10;;;25.80;99.90;;;;;;4992826;28;20031;-54
2022/06/13 01:01:24;;;;;;;6.60;1.17;;;25.80;99.90;;;;;;4992981;28;20046;-51
2022/06/13 01:03:50;;;;;;;3.60;0.95;;;25.80;99.90;;;;;;4992391;28;20034;-51
2022/06/13 01:06:18;;;;;;;3.50;1.00;;;25.80;99.90;;;;;;4991066;28;20041;-53
2022/06/13 01:08:44;;;;;;;2.78;0.93;;;25.70;99.90;;;;;;4992458;28;20096;-52
2022/06/13 01:11:22;;;;;;;7.30;0.85;;;25.70;99.90;;;;;;4992585;28;20031;-52
2022/06/13 01:14:09;;;;;;;3.58;0.85;;;25.70;99.90;;;;;;4992404;28;20026;-51
2022/06/13 01:16:56;;;;;;;2.55;0.95;;;25.70;99.90;;;;;;4992473;28;20029;-52
2022/06/13 01:19:56;;;;;;;6.70;1.20;;;25.70;99.90;;;;;;4992325;28;20034;-52
2022/06/13 01:22:54;;;;;;;5.00;1.30;;;25.70;99.90;;;;;;4992170;28;20027;-52
2022/06/13 01:25:44;;;;;;;6.05;1.30;;;25.70;99.90;;;;;;4959469;28;20045;-52
2022/06/13 01:28:40;;;;;;;6.30;0.90;;;25.70;99.90;;;;;;4979645;28;20119;-49
2022/06/13 01:31:12;;;;;;;5.57;0.85;;;25.70;99.90;;;;;;4992082;28;20026;-50
2022/06/13 01:33:47;;;;;;;4.03;0.57;;;25.70;99.90;;;;;;4992132;28;20373;-50
2022/06/13 01:36:36;;;;;;;3.00;0.70;;;25.70;99.90;;;;;;4991946;28;20470;-50
2022/06/13 01:39:04;;;;;;;10.13;1.48;;;25.70;99.90;;;;;;4991991;28;20498;-47
2022/06/13 01:41:57;;;;;;;3.78;1.00;;;25.70;99.90;;;;;;4992115;28;20027;-47
2022/06/13 01:45:02;;;;;;;4.65;1.00;;;25.70;99.90;;;;;;4992100;28;20018;-47
2022/06/13 01:47:56;;;;;;;3.80;1.02;;;25.70;99.90;;;;;;4981741;28;20037;-47
2022/06/13 01:50:30;;;;;;;2.83;0.80;;;25.70;99.90;;;;;;4991665;28;20026;-47
2022/06/13 01:53:01;;;;;;;4.97;1.38;;;25.70;99.90;;;;;;4991799;28;20494;-47
2022/06/13 01:55:59;;;;;;;4.35;0.90;;;25.70;99.90;;;;;;4991740;28;20050;-47
2022/06/13 01:58:55;;;;;;;4.03;1.15;;;25.70;99.90;;;;;;4991637;28;20058;-47
2022/06/13 02:01:34;;;;;;;4.35;1.20;;;25.70;99.90;;;;;;4970724;23;20151;-52
2022/06/13 02:04:35;;;;;;;6.35;1.00;;;25.70;99.90;;;;;;4953209;28;20027;-52
2022/06/13 02:07:14;;;;;;;3.13;1.30;;;25.70;99.90;;;;;;4947390;28;20055;-52
2022/06/13 02:10:03;;;;;;;6.43;1.10;;;25.60;99.90;;;;;;4953250;28;20098;-51
2022/06/13 02:12:34;;;;;;;3.28;1.40;;;25.60;99.90;;;;;;4953151;28;20034;-52
2022/06/13 02:15:08;;;;;;;6.28;1.25;;;25.60;99.90;;;;;;4953160;28;20023;-51
2022/06/13 02:17:44;;;;;;;5.63;0.98;;;25.60;99.90;;;;;;4952936;28;20024;-51
2022/06/13 02:20:22;;;;;;;7.70;0.90;;;25.60;99.90;;;;;;4953088;28;20127;-52
2022/06/13 02:22:57;;;;;;;4.90;1.23;;;25.70;99.90;;;;;;4953047;28;20492;-51
2022/06/13 02:25:29;;;;;;;3.35;1.27;;;25.70;99.90;;;;;;4952888;28;20484;-51
2022/06/13 02:28:05;;;;;;;10.90;7.15;;;25.60;99.90;;;;;;4952902;28;20564;-51
2022/06/13 02:30:45;;;;;;;8.93;3.57;;;25.60;99.90;;;;;;4953148;28;20106;-51
2022/06/13 02:33:18;;;;;;;4.70;2.25;;;25.50;99.90;;;;;;4964044;28;20265;-51
2022/06/13 02:36:10;;;;;;;5.93;1.50;;;25.50;99.90;;;;;;4943807;28;20031;-50
2022/06/13 02:39:05;;;;;;;4.18;1.23;;;25.50;99.90;;;;;;4952758;28;20383;-50
2022/06/13 02:41:48;;;;;;;4.95;0.95;;;25.50;99.90;;;;;;4952844;28;20446;-50
2022/06/13 02:44:25;;;;;;;5.15;1.27;;;25.50;99.90;;;;;;4952801;28;20495;-53
2022/06/13 02:46:56;;;;;;;3.70;1.58;;;25.40;99.90;;;;;;4952552;28;20118;-52
2022/06/13 02:49:55;;;;;;;4.18;1.42;;;25.40;99.90;;;;;;4952706;28;20032;-52
2022/06/13 02:52:56;;;;;;;3.88;1.98;;;25.40;99.90;;;;;;4961330;28;20045;-52
2022/06/13 02:55:23;;;;;;;4.43;2.20;;;25.40;99.90;;;;;;4964763;28;20059;-52
2022/06/13 02:58:10;;;;;;;5.70;1.93;;;25.40;99.90;;;;;;4970896;28;20064;-52
2022/06/13 03:01:07;;;;;;;3.92;1.77;;;25.40;99.90;;;;;;4971463;28;20281;-52
2022/06/13 03:04:02;;;;;;;5.90;1.70;;;25.40;99.90;;;;;;4968731;28;20034;-52
2022/06/13 03:06:38;;;;;;;4.30;1.58;;;25.40;99.90;;;;;;4969978;28;20126;-53
2022/06/13 03:09:15;;;;;;;3.38;1.50;;;25.30;99.90;;;;;;4971187;28;20031;-52
2022/06/13 03:11:49;;;;;;;6.50;1.88;;;25.30;99.90;;;;;;4969945;28;20035;-52
2022/06/13 03:14:19;;;;;;;2.17;1.10;;;25.30;99.90;;;;;;4971516;28;20019;-52
2022/06/13 03:16:47;;;;;;;3.40;0.95;;;25.30;99.90;;;;;;4970144;28;20031;-52
2022/06/13 03:19:19;;;;;;;1.70;1.05;;;25.40;99.90;;;;;;4970666;28;20478;-52
2022/06/13 03:21:49;;;;;;;2.97;0.93;;;25.30;99.90;;;;;;4971036;28;20113;-51
2022/06/13 03:24:21;;;;;;;4.10;1.00;;;25.40;99.90;;;;;;4969917;28;20051;-51
2022/06/13 03:26:59;;;;;;;2.45;1.38;;;25.30;99.90;;;;;;4970013;28;20391;-51
2022/06/13 03:29:47;;;;;;;3.97;1.10;;;25.40;99.90;;;;;;4970399;28;20023;-51
2022/06/13 03:32:28;;;;;;;2.63;1.00;;;25.40;99.90;;;;;;4967417;28;20055;-51
2022/06/13 03:34:58;;;;;;;4.40;1.20;;;25.40;99.90;;;;;;4953394;28;20043;-51
2022/06/13 03:37:51;;;;;;;4.35;1.17;;;25.30;99.90;;;;;;4955632;28;20027;-51
2022/06/13 03:40:25;;;;;;;7.57;1.00;;;25.30;99.90;;;;;;4955126;28;20086;-51
2022/06/13 03:43:00;;;;;;;2.13;0.75;;;25.30;99.90;;;;;;4955531;28;20031;-51
2022/06/13 03:45:30;;;;;;;3.70;0.80;;;25.30;99.90;;;;;;4942395;28;20542;-52
2022/06/13 03:48:08;;;;;;;12.85;1.42;;;25.30;99.90;;;;;;4955578;28;20114;-51
2022/06/13 03:50:53;;;;;;;2.88;1.05;;;25.30;99.90;;;;;;4970174;28;20015;-51
2022/06/13 03:53:19;;;;;;;3.42;1.17;;;25.30;99.90;;;;;;4955260;28;20395;-52
2022/06/13 03:55:54;;;;;;;1.45;0.80;;;25.30;99.90;;;;;;4955253;28;20027;-53
2022/06/13 03:58:28;;;;;;;6.32;1.20;;;25.30;99.90;;;;;;4955050;28;20046;-52
2022/06/13 04:01:04;;;;;;;1.52;0.73;;;25.30;99.90;;;;;;4956038;28;20303;-53
2022/06/13 04:03:30;;;;;;;3.75;0.98;;;25.30;99.90;;;;;;4953839;28;20467;-53
2022/06/13 04:06:02;;;;;;;4.97;1.05;;;25.30;99.90;;;;;;4954995;28;20206;-52
2022/06/13 04:08:31;;;;;;;3.17;1.33;;;25.30;99.90;;;;;;4948145;28;20034;-52
2022/06/13 04:11:30;;;;;;;3.22;1.10;;;25.40;99.90;;;;;;4947004;28;20035;-52
2022/06/13 04:14:36;;;;;;;3.00;1.13;;;25.40;99.90;;;;;;4969506;28;20023;-52
2022/06/13 04:17:20;;;;;;;2.50;1.00;;;25.50;99.90;;;;;;4953871;28;20058;-52
2022/06/13 04:20:10;;;;;;;3.47;1.08;;;25.60;99.90;;;;;;4953447;28;20042;-52
2022/06/13 04:23:11;;;;;;;3.25;1.00;;;25.60;99.90;;;;;;4954201;28;20081;-52
2022/06/13 04:25:53;;;;;;;2.95;1.00;;;25.60;99.90;;;;;;4913485;29;20055;-52
2022/06/13 04:28:32;;;;;;;6.75;1.50;;;25.70;99.90;;;;;;4950391;28;20479;-52
2022/06/13 04:31:01;;;;;;;2.78;1.13;;;25.70;99.90;;;;;;4954545;28;20058;-52
2022/06/13 04:33:37;;;;;;;3.45;1.20;;;25.70;99.90;;;;;;4954367;28;20051;-52
2022/06/13 04:36:07;;;;;;;4.90;1.52;;;25.70;99.90;;;;;;4954397;28;20084;-52
2022/06/13 04:38:33;;;;;;;2.05;0.90;;;25.80;99.90;;;;;;4954052;28;20031;-52
2022/06/13 04:41:03;;;;;;;6.32;1.33;;;25.70;99.90;;;;;;4954335;28;20027;-52
2022/06/13 04:43:40;;;;;;;2.45;1.05;;;25.80;99.90;;;;;;4954198;28;20419;-52
2022/06/13 04:46:09;;;;;;;;;;;25.80;99.90;;;;;;4954669;28;20086;-52
2022/06/13 04:48:42;;;;;;;3.13;1.20;;;25.80;99.90;;;;;;4953821;28;20362;-52
2022/06/13 04:51:12;;;;;;;2.67;1.33;;;25.90;99.90;;;;;;4954047;28;20027;-52
2022/06/13 04:54:00;;;;;;;2.58;1.23;;;25.90;99.90;;;;;;4954023;28;20031;-51
2022/06/13 04:56:26;;;;;;;2.40;1.20;;;25.90;99.90;;;;;;4953942;28;20550;-52
2022/06/13 04:58:54;;;;;;;3.47;1.40;;;25.90;99.90;;;;;;4953949;28;20046;-52
2022/06/13 05:01:35;;;;;;;8.07;1.80;;;25.90;99.90;;;;;;4953669;28;20462;-52
2022/06/13 05:04:04;;;;;;;10.35;2.40;;;25.90;99.90;;;;;;4953781;28;20106;-51
2022/06/13 05:06:43;;;;;;;6.07;1.90;;;25.80;99.90;;;;;;4953823;28;20039;-51
2022/06/13 05:09:18;;;;;;;4.50;1.63;;;25.90;99.90;;;;;;4953888;28;20030;-51
2022/06/13 05:12:07;;;;;;;3.13;1.48;;;25.90;99.90;;;;;;4954058;28;20029;-51
2022/06/13 05:14:56;;;;;;;3.60;1.30;;;25.90;99.90;;;;;;4942048;28;20106;-51
2022/06/13 05:17:49;;;;;;;4.22;1.30;;;25.90;99.90;;;;;;4953552;28;20026;-51
2022/06/13 05:20:24;;;;;;;9.82;2.40;;;26.00;99.90;;;;;;4953906;28;20487;-51
2022/06/13 05:22:49;;;;;;;3.30;1.30;;;25.90;99.90;;;;;;4940531;28;20034;-52
2022/06/13 05:25:43;;;;;;;4.05;1.80;;;25.90;99.90;;;;;;4953756;28;20031;-51
2022/06/13 05:28:11;;;;;;;2.45;1.67;;;25.90;99.90;;;;;;4953652;28;20383;-51
2022/06/13 05:30:43;;;;;;;5.35;1.80;;;25.90;99.90;;;;;;4953428;28;20379;-51
2022/06/13 05:33:11;;;;;;;4.55;1.92;;;26.00;99.90;;;;;;4953390;28;20471;-51
2022/06/13 05:35:43;;;;;;;4.93;2.03;;;26.00;99.90;;;;;;4953585;28;20106;-51
2022/06/13 05:38:15;;;;;;;7.07;1.80;;;26.00;99.90;;;;;;4968068;28;20035;-51
2022/06/13 05:40:41;;;;;;;9.50;2.35;;;26.00;99.90;;;;;;4953485;28;20023;-51
2022/06/13 05:43:11;;;;;;;7.25;2.60;;;26.00;99.90;;;;;;4953339;28;20027;-51
2022/06/13 05:45:40;;;;;;;9.25;2.22;;;26.00;99.90;;;;;;4953246;28;20098;-51
2022/06/13 05:48:11;;;;;;;12.52;2.42;;;26.00;99.90;;;;;;4953059;28;20020;-51
2022/06/13 05:50:36;;;;;;;6.70;1.90;;;26.00;99.90;;;;;;4953269;28;20054;-51
2022/06/13 05:53:02;;;;;;;5.05;1.90;;;26.00;99.90;;;;;;4953173;28;20500;-51
2022/06/13 05:55:28;;;;;;;7.32;1.75;;;26.00;99.90;;;;;;4953070;28;20027;-51
2022/06/13 05:57:54;;;;;;;5.78;1.77;;;26.00;99.90;;;;;;4967998;28;20063;-51
2022/06/13 06:00:24;;;;;;;5.38;1.83;;;26.00;99.90;;;;;;4952763;28;20027;-51
2022/06/13 06:02:50;;;;;;;6.20;1.75;;;26.10;99.90;;;;;;4953054;28;20031;-51
2022/06/13 06:05:16;;;;;;;4.53;1.65;;;26.10;99.90;;;;;;4951787;28;20031;-51
2022/06/13 06:07:42;;;;;;;6.82;2.00;;;26.10;99.90;;;;;;4953145;28;20039;-51
2022/06/13 06:10:24;;;;;;;6.10;1.35;;;26.10;99.90;;;;;;4953153;28;20252;-51
2022/06/13 06:12:50;;;;;;;3.55;1.23;;;26.20;99.90;;;;;;4953045;28;20031;-51
2022/06/13 06:15:15;;;;;;;8.20;1.55;;;26.20;99.90;;;;;;4953135;28;20074;-51
2022/06/13 06:17:41;;;;;;;6.15;1.88;;;26.20;99.90;;;;;;4952966;28;20019;-52
2022/06/13 06:20:07;;;;;;;3.83;2.00;;;26.20;99.90;;;;;;4952911;28;20360;-52
2022/06/13 06:22:33;;;;;;;8.60;3.10;;;26.20;99.90;;;;;;4967617;28;20026;-52
2022/06/13 06:24:59;;;;;;;5.88;1.70;;;26.30;99.90;;;;;;4952810;28;20031;-52
2022/06/13 06:27:25;;;;;;;5.45;1.35;;;26.30;99.90;;;;;;4955936;28;20101;-52
2022/06/13 06:29:50;;;;;;;3.88;1.48;;;26.30;99.90;;;;;;4971542;28;20092;-52
2022/06/13 06:32:16;;;;;;;7.68;2.40;;;26.30;99.90;;;;;;4955613;28;20027;-52
2022/06/13 06:34:42;;;;;;;4.95;1.75;;;26.40;99.90;;;;;;4956723;28;20039;-53
2022/06/13 06:37:07;;;;;;;8.10;1.60;;;26.40;99.90;;;;;;4956563;28;20483;-54
2022/06/13 06:39:33;;;;;;;6.35;2.22;;;26.40;99.90;;;;;;4956449;28;20031;-53
2022/06/13 06:41:59;;;;;;;5.32;1.58;;;26.40;99.90;;;;;;4956427;28;20458;-52
2022/06/13 06:44:25;;;;;;;4.70;1.33;;;26.50;99.90;;;;;;4956554;28;20027;-54
2022/06/13 06:46:50;;;;;;;4.55;1.25;;;26.50;99.90;;;;;;4956342;28;20071;-52
2022/06/13 06:49:16;;;;;;;5.07;1.85;;;26.50;99.90;;;;;;4955263;28;20066;-52
2022/06/13 06:51:43;;;;;;;2.95;1.20;;;26.60;99.90;;;;;;4956285;28;20031;-52
2022/06/13 06:59:56;;;;;;;6.57;1.67;;;26.60;99.90;;;;;;4956014;28;20452;-52
2022/06/13 07:02:27;;;;;;;7.40;2.00;;;26.70;99.90;;;;;;4956184;28;20031;-52
2022/06/13 07:04:55;;;;;;;3.65;1.85;;;26.70;99.90;;;;;;4956139;28;20027;-52
2022/06/13 07:07:21;;;;;;;7.55;2.83;;;26.70;99.90;;;;;;4956123;28;20194;-52
2022/06/13 07:09:47;;;;;;;8.20;1.83;;;26.70;99.90;;;;;;4956283;28;20023;-52
2022/06/13 07:12:14;;;;;;;7.82;2.20;;;26.70;99.90;;;;;;4955797;28;20019;-52
2022/06/13 07:14:39;;;;;;;6.35;2.13;;;26.70;99.90;;;;;;4955919;28;20030;-52
2022/06/13 07:17:07;;;;;;;9.32;1.90;;;26.70;99.90;;;;;;4955630;28;20387;-52
2022/06/13 07:19:34;;;;;;;11.88;4.30;;;26.70;99.90;;;;;;4955856;28;20023;-52
2022/06/13 07:22:01;;;;;;;10.13;2.97;;;26.80;99.90;;;;;;4955805;28;20475;-52
2022/06/13 07:24:27;;;;;;;15.55;6.43;;;26.80;99.90;;;;;;4955616;28;20103;-52
2022/06/13 07:26:54;;;;;;;7.43;2.53;;;26.80;99.90;;;;;;4955741;28;20463;-52
2022/06/13 07:29:21;;;;;;;12.10;1.90;;;26.80;99.90;;;;;;4955827;28;20585;-52
2022/06/13 07:32:03;;;;;;;12.57;3.10;;;26.80;99.90;;;;;;4955608;28;20443;-52
2022/06/13 07:34:31;;;;;;;14.75;3.40;;;26.90;99.90;;;;;;4956542;28;20472;-52
2022/06/13 07:36:59;;;;;;;14.00;3.20;;;26.80;99.90;;;;;;4955370;28;20391;-52
2022/06/13 07:39:25;;;;;;;9.73;2.17;;;26.90;99.90;;;;;;4955477;28;20031;-52
2022/06/13 07:41:51;;;;;;;9.82;2.95;;;26.90;99.90;;;;;;4955429;28;20034;-53
2022/06/13 07:44:32;;;;;;;15.30;3.85;;;26.80;99.90;;;;;;4955502;28;20031;-53
2022/06/13 07:46:58;;;;;;;18.92;3.78;;;26.80;99.90;;;;;;4955318;28;20035;-52
2022/06/13 07:49:24;;;;;;;19.45;9.57;;;26.80;99.90;;;;;;4955608;28;20026;-52
2022/06/13 07:51:50;;;;;;;8.63;3.83;;;26.80;99.90;;;;;;4955338;28;20024;-52
2022/06/13 07:54:16;;;;;;;8.63;3.42;;;26.80;99.90;;;;;;4955521;28;20024;-52
2022/06/13 07:56:43;;;;;;;8.88;3.55;;;26.90;99.90;;;;;;4954971;28;20384;-52
2022/06/13 07:59:14;;;;;;;10.30;3.20;;;26.90;99.90;;;;;;4954923;28;20024;-52
2022/06/13 08:01:41;;;;;;;7.00;1.77;;;26.90;99.90;;;;;;4954530;28;20507;-52
2022/06/13 08:04:07;;;;;;;8.98;2.17;;;27.00;99.90;;;;;;4954832;28;20098;-52
2022/06/13 08:06:34;;;;;;;8.57;4.43;;;27.00;99.90;;;;;;4954730;28;20062;-52
2022/06/13 08:08:59;;;;;;;5.25;2.10;;;27.00;99.90;;;;;;4954786;28;20015;-52
2022/06/13 08:11:33;;;;;;;10.48;2.60;;;27.10;99.90;;;;;;4955083;28;20086;-52
2022/06/13 08:13:59;;;;;;;5.13;1.88;;;27.10;99.90;;;;;;4954601;28;20019;-52
2022/06/13 08:16:25;;;;;;;9.05;2.25;;;27.10;99.90;;;;;;4953612;28;20074;-52
2022/06/13 08:18:51;;;;;;;6.20;2.92;;;27.20;99.90;;;;;;4954760;28;20034;-52
2022/06/13 08:21:17;;;;;;;6.78;1.70;;;27.20;99.90;;;;;;4954775;28;20023;-52
2022/06/13 08:23:43;;;;;;;4.53;1.83;;;27.20;99.90;;;;;;4954621;28;20049;-52
2022/06/13 08:26:10;;;;;;;13.20;2.33;;;27.20;99.90;;;;;;4954249;28;20035;-53
2022/06/13 08:28:36;;;;;;;11.80;1.92;;;27.20;99.90;;;;;;4954485;28;20451;-53
2022/06/13 08:31:07;;;;;;;9.60;2.72;;;27.20;99.90;;;;;;4954289;28;20031;-52
2022/06/13 08:33:33;;;;;;;9.05;2.38;;;27.20;99.90;;;;;;4954457;28;20047;-53
2022/06/13 08:35:59;;;;;;;11.35;2.67;;;27.20;99.90;;;;;;4953180;28;20059;-53
2022/06/13 08:38:25;;;;;;;11.45;2.60;;;27.10;99.90;;;;;;4954371;28;20059;-52
2022/06/13 08:41:10;;;;;;;10.50;2.20;;;27.10;99.90;;;;;;4954277;28;20027;-52
2022/06/13 08:43:54;;;;;;;14.05;2.20;;;27.10;99.90;;;;;;4954126;28;20021;-53
2022/06/13 08:46:27;;;;;;;9.68;2.47;;;27.10;99.90;;;;;;4954177;28;20039;-53
2022/06/13 08:49:24;;;;;;;7.93;1.48;;;27.10;99.90;;;;;;4941196;28;20019;-53
2022/06/13 08:51:57;;;;;;;9.68;1.65;;;27.00;99.90;;;;;;4933342;28;20094;-52
2022/06/13 08:54:31;;;;;;;11.52;1.83;;;27.00;99.90;;;;;;4954181;28;20037;-53
2022/06/13 08:57:00;;;;;;;11.32;1.83;;;27.00;99.90;;;;;;4954125;28;20475;-53
2022/06/13 08:59:34;;;;;;;7.57;1.70;;;27.00;99.90;;;;;;4954096;28;20020;-52
2022/06/13 09:02:19;;;;;;;9.75;1.60;;;26.90;99.90;;;;;;4953898;28;20031;-52
2022/06/13 09:04:54;;;;;;;11.68;1.55;;;26.90;99.90;;;;;;4954087;28;20031;-53
2022/06/13 09:07:26;;;;;;;10.75;1.75;;;26.90;99.90;;;;;;4953640;28;20541;-53
2022/06/13 09:10:11;;;;;;;7.40;1.73;;;26.90;99.90;;;;;;4953829;28;20041;-53
2022/06/13 09:12:49;;;;;;;2.63;1.00;;;26.90;99.90;;;;;;4953736;28;20022;-53
2022/06/13 09:15:18;;;;;;;7.78;1.45;;;26.90;99.90;;;;;;4953722;28;20015;-52
2022/06/13 09:18:13;;;;;;;7.28;1.52;;;26.90;99.90;;;;;;4953655;28;20038;-53
2022/06/13 09:20:46;;;;;;;7.90;1.77;;;26.90;99.90;;;;;;4953574;28;20020;-53
2022/06/13 09:23:18;;;;;;;6.38;1.33;;;26.90;99.90;;;;;;4953718;28;20031;-52
2022/06/13 09:25:52;;;;;;;4.57;1.42;;;26.90;99.90;;;;;;4953485;28;20459;-53
2022/06/13 09:28:40;;;;;;;7.15;1.27;;;26.90;99.90;;;;;;4953514;28;20023;-53
2022/06/13 09:31:13;;;;;;;8.55;1.83;;;27.00;99.90;;;;;;4953375;28;20060;-53
2022/06/13 09:33:59;;;;;;;3.85;0.82;;;27.00;99.90;;;;;;4953431;28;20152;-52
2022/06/13 09:36:32;;;;;;;6.15;1.77;;;27.00;99.90;;;;;;4953177;28;20023;-53
2022/06/13 09:39:08;;;;;;;4.03;1.23;;;27.10;99.90;;;;;;4953591;28;20035;-53
2022/06/13 09:42:05;;;;;;;8.27;1.67;;;27.10;99.90;;;;;;4953268;28;20380;-53
2022/06/13 09:44:59;;;;;;;5.63;1.65;;;27.10;99.90;;;;;;4953489;28;20031;-53
2022/06/13 09:47:51;;;;;;;3.55;1.10;;;27.20;99.90;;;;;;4942509;28;20434;-53
2022/06/13 09:50:32;;;;;;;5.55;1.48;;;27.20;99.90;;;;;;4953117;28;20074;-53
2022/06/13 09:53:19;;;;;;;7.78;2.17;;;27.10;99.90;;;;;;4953345;28;20031;-53
2022/06/13 09:55:48;;;;;;;8.88;3.72;;;27.20;99.90;;;;;;4940974;28;20109;-53
2022/06/13 09:58:37;;;;;;;6.18;1.70;;;27.20;99.90;;;;;;4953179;28;20031;-53
2022/06/13 10:01:12;;;;;;;3.95;1.40;;;27.20;99.90;;;;;;4933231;28;20070;-53
2022/06/13 10:04:02;;;;;;;5.63;1.20;;;27.20;99.90;;;;;;4953057;28;20408;-53
2022/06/13 10:06:52;;;;;;;2.67;1.10;;;27.20;99.90;;;;;;4953231;28;20082;-53
2022/06/13 10:09:20;;;;;;;6.85;2.03;;;27.20;99.90;;;;;;4940443;28;20092;-53
2022/06/13 10:12:29;;;;;;;7.93;1.70;;;27.30;99.90;;;;;;4952913;28;20443;-53
2022/06/13 10:15:16;;;;;;;13.70;7.68;;;27.30;99.90;;;;;;4925990;28;20035;-53
2022/06/13 10:18:20;;;;;;;5.10;1.83;;;27.30;99.90;;;;;;4939582;28;20031;-53
2022/06/13 10:20:58;;;;;;;6.57;2.20;;;27.30;99.90;;;;;;4952598;28;20023;-53
2022/06/13 10:24:01;;;;;;;7.32;1.52;;;27.40;99.90;;;;;;4952882;28;20086;-54
2022/06/13 10:26:45;;;;;;;9.18;2.03;;;27.40;99.90;;;;;;4941371;28;20035;-53
2022/06/13 10:29:32;;;;;;;5.50;1.45;;;27.50;99.90;;;;;;4952620;28;20472;-53
2022/06/13 10:32:22;;;;;;;4.65;1.35;;;27.40;99.90;;;;;;4952710;28;20031;-53
2022/06/13 10:35:16;;;;;;;8.05;1.75;;;27.50;99.90;;;;;;4949610;28;20427;-53
2022/06/13 10:38:17;;;;;;;4.53;1.73;;;27.60;99.90;;;;;;4952581;28;20031;-53
2022/06/13 10:40:43;;;;;;;6.30;1.73;;;27.60;99.90;;;;;;4919442;28;20574;-52
2022/06/13 10:43:10;;;;;;;9.20;1.85;;;27.60;99.90;;;;;;4952082;28;20499;-52
2022/06/13 10:45:40;;;;;;;6.07;1.95;;;27.50;99.90;;;;;;4946268;28;20035;-52
2022/06/13 10:48:23;;;;;;;6.25;1.50;;;27.50;99.90;;;;;;4951353;28;20534;-53
2022/06/13 10:50:53;;;;;;;7.05;1.60;;;27.40;99.90;;;;;;4952504;28;20027;-53
2022/06/13 10:53:44;;;;;;;5.85;2.20;;;27.40;99.90;;;;;;4949307;28;20053;-53
2022/06/13 10:56:24;;;;;;;6.07;4.07;;;27.40;99.90;;;;;;4944966;28;20093;-53
2022/06/13 10:58:54;;;;;;;9.55;2.42;;;27.40;99.90;;;;;;4951831;28;20468;-53
2022/06/13 11:01:24;;;;;;;8.48;2.95;;;27.40;99.90;;;;;;4949826;28;20109;-53
2022/06/13 11:04:18;;;;;;;5.93;1.58;;;27.40;99.90;;;;;;4956156;28;20022;-53
2022/06/13 11:06:50;;;;;;;5.65;2.35;;;27.40;99.90;;;;;;4940216;28;20132;-53
2022/06/13 11:09:45;;;;;;;4.20;1.35;;;27.40;99.90;;;;;;4948400;28;20057;-53
2022/06/13 11:12:28;;;;;;;3.58;1.90;;;27.50;99.90;;;;;;4949801;28;20118;-53
2022/06/13 11:23:56;;;;;;;7.57;2.10;;;27.40;99.90;;;;;;4952000;28;20039;-53
2022/06/13 11:29:17;;;;;;;7.35;2.95;;;27.60;99.90;;;;;;4957065;28;20070;-52
2022/06/13 11:31:55;;;;;;;7.88;2.22;;;27.70;99.90;;;;;;4955039;28;20035;-52
2022/06/13 11:34:28;;;;;;;4.75;2.15;;;27.70;99.90;;;;;;4955791;28;20095;-54
2022/06/13 11:37:12;;;;;;;7.15;2.50;;;27.70;99.90;;;;;;4952635;28;20023;-54
2022/06/13 11:39:41;;;;;;;7.50;1.88;;;27.70;99.90;;;;;;4956914;28;20027;-54
2022/06/13 11:42:18;;;;;;;6.78;2.15;;;27.80;99.90;;;;;;4949822;28;20031;-54
2022/06/13 11:44:50;;;;;;;4.75;2.03;;;28.00;99.90;;;;;;4966047;28;20387;-53
2022/06/13 11:47:18;;;;;;;10.43;2.50;;;28.00;99.90;;;;;;4952854;28;20054;-53
2022/06/13 11:49:47;;;;;;;5.43;1.20;;;28.10;99.90;;;;;;4951561;28;20423;-55
2022/06/13 11:52:13;;;;;;;15.85;9.25;;;28.10;99.90;;;;;;4952397;28;20110;-55
2022/06/13 11:54:46;;;;;;;7.53;4.00;;;28.10;99.90;;;;;;4954857;28;20364;-54
2022/06/13 11:57:15;;;;;;;8.13;4.40;;;28.10;99.90;;;;;;4952848;28;20111;-54
2022/06/13 11:59:53;;;;;;;14.50;6.40;;;28.00;99.90;;;;;;4951137;28;20031;-53
2022/06/13 12:02:22;;;;;;;8.43;3.65;;;28.10;99.90;;;;;;4953143;28;20036;-51
2022/06/13 12:04:48;;;;;;;6.55;2.17;;;28.00;99.90;;;;;;4949527;28;20046;-51
2022/06/13 12:07:32;;;;;;;9.88;1.40;;;28.00;99.90;;;;;;4964550;28;20387;-51
2022/06/13 12:10:00;;;;;;;6.03;1.88;;;28.10;99.90;;;;;;4955654;28;20216;-52
2022/06/13 12:12:41;;;;;;;5.28;2.00;;;28.00;99.90;;;;;;4945451;28;20027;-53
2022/06/13 12:15:12;;;;;;;12.90;2.78;;;28.00;99.90;;;;;;4949289;28;20051;-53
2022/06/13 12:17:54;;;;;;;6.28;1.92;;;28.00;99.90;;;;;;4960809;28;20050;-53
2022/06/13 12:20:33;;;;;;;5.60;2.47;;;28.00;99.90;;;;;;4961852;28;20073;-53
2022/06/13 12:23:03;;;;;;;7.43;2.72;;;28.00;99.90;;;;;;4956277;28;20440;-52
2022/06/13 12:25:50;;;;;;;5.90;1.88;;;28.00;99.90;;;;;;4952539;28;20042;-53
2022/06/13 12:28:21;;;;;;;8.82;3.17;;;27.90;99.90;;;;;;4951349;28;20082;-54
2022/06/13 12:31:09;;;;;;;5.18;2.05;;;27.90;99.90;;;;;;4966409;28;20027;-53
2022/06/13 12:34:12;;;;;;;14.95;9.85;;;27.90;99.90;;;;;;4944301;28;20046;-52
2022/06/13 12:36:56;;;;;;;6.72;3.85;;;27.90;99.90;;;;;;4947281;28;20031;-53
2022/06/13 12:39:31;;;;;;;10.88;3.75;;;28.00;99.90;;;;;;4966792;28;20615;-52
2022/06/13 12:42:20;;;;;;;6.53;2.83;;;27.90;99.90;;;;;;4958986;28;20379;-53
2022/06/13 12:44:54;;;;;;;12.82;5.55;;;27.80;99.90;;;;;;4952442;28;20070;-53
2022/06/13 12:47:39;;;;;;;15.70;11.43;;;27.80;99.90;;;;;;4953018;28;20086;-55
2022/06/13 12:50:34;;;;;;;6.75;2.50;;;27.90;99.90;;;;;;4956451;28;20027;-53
2022/06/13 12:53:21;;;;;;;4.10;1.85;;;27.70;99.90;;;;;;4942190;28;20043;-53
2022/06/13 12:55:53;;;;;;;;;;;27.70;99.90;;;;;;4958265;28;20383;-51
2022/06/13 12:58:48;;;;;;;10.75;2.53;;;27.70;99.90;;;;;;4953487;28;20398;-51
2022/06/13 13:01:20;;;;;;;6.25;1.60;;;27.70;99.90;;;;;;4953963;28;20044;-52
2022/06/13 13:03:58;;;;;;;11.27;4.18;;;27.70;99.90;;;;;;4947542;28;20378;-54
2022/06/13 13:06:24;;;;;;;5.65;3.33;;;27.60;99.90;;;;;;4947177;28;20043;-53
2022/06/13 13:09:16;;;;;;;7.55;2.60;;;27.50;99.90;;;;;;4954505;28;20030;-53
2022/06/13 13:11:50;;;;;;;7.38;4.00;;;27.40;99.90;;;;;;4970483;28;20035;-54
2022/06/13 13:14:25;;;;;;;5.30;2.97;;;27.50;99.90;;;;;;4970813;28;20118;-54
2022/06/13 13:17:05;;;;;;;10.93;2.53;;;27.40;99.90;;;;;;4971953;28;20027;-54
2022/06/13 13:19:44;;;;;;;4.97;1.92;;;27.40;99.90;;;;;;4948109;28;20015;-53
2022/06/13 13:22:23;;;;;;;7.00;3.13;;;27.50;99.90;;;;;;4964874;28;20028;-54
2022/06/13 13:25:17;;;;;;;8.77;3.05;;;27.50;99.90;;;;;;4968330;28;20475;-53
2022/06/13 13:27:59;;;;;;;8.20;1.30;;;27.40;99.90;;;;;;4964820;28;20035;-51
2022/06/13 13:30:47;;;;;;;3.92;1.65;;;27.40;99.90;;;;;;4945498;28;20023;-52
2022/06/13 13:34:06;;;;;;;11.10;1.50;;;27.50;99.90;;;;;;4951284;28;20478;-52
2022/06/13 13:36:43;;;;;;;5.55;1.80;;;27.50;99.90;;;;;;4928605;29;20031;-53
2022/06/13 13:39:20;;;;;;;6.65;2.60;;;27.50;99.90;;;;;;4939173;28;20102;-53
2022/06/13 13:41:59;;;;;;;11.40;4.57;;;27.50;99.90;;;;;;4952406;28;20023;-52
2022/06/13 13:44:49;;;;;;;9.98;3.45;;;27.50;99.90;;;;;;4952415;28;20058;-53
2022/06/13 13:47:20;;;;;;;5.97;2.40;;;27.50;99.90;;;;;;4950714;28;20082;-53
2022/06/13 13:49:57;;;;;;;6.05;1.63;;;27.50;99.90;;;;;;4956719;28;20023;-53